Hartberg, Austria
Current Conditions -  °F | °C
As of 7:50 PM on Thursday 23 Oct 2014 (Local Time) from LOWG Reporting Station
Broken Clouds Broken Clouds  
Wind Chill: 55°   Ceiling: 8000
Heat Index: 55°   Visibility: 6mi
Dew Point: 39°   Wind: 22mph
Humidity: 54%   Direction: 350°N
Pressure: 29.85"   Gusts: 35mph
Location:  46.98°N, 16.12°E
Report Text: LOWG 231850Z 35019G30KT 9999 FEW050 BKN080 13/04 Q1011 NOSIG
Loading
Personal Weather Stations






























Interactive Weather Map
Tropical Storm Tracking
New forecast layout! Learn more

10-Day Weather Forecast

Advertisements
Track Severe Weather on mobile